Main page
METAR-TAF:

METAR-TAF

Airports :

Land's End Airport

Land's End, England

latitude: 50-06-10N, longitude: 005-40-14W, elevation: 122 m

Current weather observation

The report was made 8 hours and 31 minutes ago, at 17:20 UTC
Wind 8 kt from the West
Temperature 17°C
Humidity 100%
Pressure 1015 hPa
Visibility: 8000 m
Broken clouds at a height of 300 ft

METAR: EGHC 141720Z 28008KT 8000 BKN003 17/17 Q1015

Time: 02:51 (01:51 UTC)

Forecast

The report was made 9 hours and 13 minutes ago, at 16:38 UTC
Forecast valid from 14 at 16 UTC to 14 at 18 UTC
Wind 5 kt from the West
Visibility: 0300 m
fog
Temporary
from 14 at 16 UTC to 14 at 18 UTC
Visibility: 3000 m
Broken clouds at a height of 200 ft
mist
Probability 30% :
Temporary
from 14 at 16 UTC to 14 at 18 UTC
Wind 15 kt from variable directions with gusts up to 25 kt
thunderstorm, heavy rain

TAF: EGHC 141638Z 1416/1418 26005KT 0300 FG VV/// TEMPO 1416/1418 3000 BR BKN002 PROB30 TEMPO 1416/1418 VRB15G25KT +TSRA

Weather observations and forecasts of more than 4000 airports (METAR and TAF reports).

The available stations are represented by yellow and red dots on the map.

Hover mouse over dot to see the name of the station.

Then click to see weather observations and forecasts.

To change the map : click on the green buttons with a black cross to zoom in, on the green button with a dash to zoom out, or on the green arrows for adjacent maps.


METAR-TAF: